Archival Weather

Chicago O'Hare International

Chicago, Illinois (KORD)

Report from: Wednesday, February 16, 2022 5:51 PM CST
Current time: Saturday, February 4, 2023 11:10 PM CST

Current weather
Weather history
Weather forecast

Present weatherLight rain
Temperature11.1°C (52.0°F)
Dew point8.3°C (46.9°F)
Winds 11 kts (5.7 m/s, 12.7 mph) South-Southwest (210°)
Wind gusts 24 kts (12.3 m/s, 27.6 mph)
Peak wind 27 kts (13.9 m/s, 31.1 mph) Southwest (220°) at 17:02
Visibility10 mi. (16.1 km)
Clouds Few clouds 1,900 ft. (579 m)
Ceiling: Broken clouds 3,900 ft. (1,189 m)
Overcast 6,500 ft. (1,981 m)
Altimeter29.78 in.Hg (1008 mB)
Precipitiation0.01 in. (0 mm)
Precip last 3 hours0.01 in. (0 mm)
Relative humidity83 %
Density altitude-146 ft. (-45 m)
Sea-level pressure100.9 kPa (1009 mB, 29.78 in.Hg)
Max temp last 6 hours11.7°C (53.1°F)
Min temp last 6 hours10.0°C (50.0°F)
Remarks Automated weather observing station with precipitation discriminator
Pressure rising
Flight conditions Visual Meteorological Conditions
Raw dataKORD 162351Z 21011G24KT 10SM -RA FEW019 BKN039 OVC065 11/08 A2978 RMK AO2 PK WND 22027/2302 SLP086 P0001 60001 T01110083 10117 20100 52006
An unhandled exception has occurred. See browser dev tools for details. Reload 🗙